This is the latest recevied weather packets stored in our database for station/object NR5ON-13. If no packets are shown the sender has not sent any weather packets the latest 1 day(s).
| Time | Temp. | Humidity | Pressure | Rain* | Wind** | Luminosity | Snow |
|---|---|---|---|---|---|---|---|
| 1778035116 | 7.22° C | 82% | 1013.4 hPa | 0 mm | 1.34 m/s, 291° | - | - |
| 1778034821 | 7.22° C | 82% | 1013.1 hPa | 0.25 mm | 0.45 m/s, 337° | - | - |
| 1778034507 | 7.22° C | 82% | 1013.2 hPa | 0.51 mm | 1.34 m/s, 341° | - | - |
| 1778034212 | 7.22° C | 84% | 1013 hPa | 1.52 mm | 0.45 m/s, 317° | - | - |
| 1778033917 | 7.22° C | 85% | 1013 hPa | 1.78 mm | 0.45 m/s, 345° | - | - |
| 1778033622 | 7.22° C | 85% | 1013.2 hPa | 1.78 mm | 0 m/s | - | - |
| 1778033308 | 7.22° C | 84% | 1013.2 hPa | 1.78 mm | 0 m/s | - | - |
| 1778033016 | 7.22° C | 83% | 1013.3 hPa | 1.78 mm | 0.89 m/s, 344° | - | - |
| 1778032720 | 7.22° C | 82% | 1013.1 hPa | 1.78 mm | 0 m/s | - | - |
| 1778032410 | 7.22° C | 82% | 1013.1 hPa | 1.78 mm | 0.89 m/s, 308° | - | - |
| 1778032115 | 7.22° C | 81% | 1012.9 hPa | 1.78 mm | 0.89 m/s, 311° | - | - |
| 1778031821 | 7.78° C | 80% | 1012.8 hPa | 1.78 mm | 2.24 m/s, 306° | - | - |
| 1778031506 | 7.78° C | 78% | 1013.3 hPa | 1.78 mm | 2.24 m/s, 254° | - | - |
| 1778031215 | 8.89° C | 74% | 1013.6 hPa | 1.52 mm | 2.24 m/s, 221° | - | - |
| 1778030920 | 10.56° C | 63% | 1013.5 hPa | 1.27 mm | 4.02 m/s, 257° | - | - |
| 1778030607 | 12.22° C | 54% | 1012.7 hPa | 0.25 mm | 1.34 m/s, 194° | - | - |
| 1778030315 | 12.78° C | 51% | 1012.1 hPa | 0 mm | 1.79 m/s, 234° | - | - |
| 1778030023 | 12.78° C | 47% | 1011.6 hPa | 0 mm | 0.45 m/s, 238° | - | - |
| 1778029712 | 12.78° C | 47% | 1011.4 hPa | 0 mm | 0 m/s | - | - |
| 1778029417 | 12.78° C | 46% | 1011.7 hPa | 0 mm | 0.89 m/s, 250° | - | - |
| 1778029122 | 12.78° C | 46% | 1011.7 hPa | 0 mm | 0.45 m/s, 229° | - | - |
| 1778028807 | 13.33° C | 45% | 1011.7 hPa | 0 mm | 0.45 m/s, 257° | - | - |
| 1778028512 | 13.33° C | 43% | 1011.6 hPa | 0 mm | 0.89 m/s, 221° | - | - |
| 1778028218 | 13.89° C | 42% | 1011.7 hPa | 0 mm | 1.79 m/s, 208° | - | - |
| 1778027923 | 14.44° C | 42% | 1011.7 hPa | 0 mm | 1.79 m/s, 259° | - | - |
* Rain latest hour (hover to see other rain measurements)
** Current wind speed in m/s (hover to see current wind gust speed)